Borger, Netherlands
Current Conditions -  °F | °C
As of 3:25 AM on Wednesday 22 Oct 2014 (Local Time) from EHGG Reporting Station
Rain Showers Rain Showers  
Wind Chill: 41°   Ceiling: 3700
Heat Index: 48°   Visibility: 4mi
Dew Point: 45°   Wind: 21mph
Humidity: 87%   Direction: 310°NW
Pressure: 29.71"   Gusts: 32mph
Location:  52.92°N, 6.79°E
Report Text: EHGG 220125Z AUTO 31018G28KT 240V340 7000 -SHRA +DZ FEW015CBSCT031 BKN037 09/07 Q1006 RERA REDZ
Loading
Personal Weather Stations






























Interactive Weather Map
Tropical Storm Tracking
New forecast layout! Learn more

10-Day Weather Forecast

Advertisements
Track Severe Weather on mobile